Terminal Aerodrome Forecast
Issued by NWS

Home | Current Version | Previous Version | Text Only | Print | Product List | Glossary On
Versions: 1 2 3 4 5 6 7 8 9 10 11 12 13
429
FTUS43 KAPX 301741
TAFTVC
TAF
KTVC 301741Z 3018/3118 05010G16KT P6SM FEW050 FEW220
     FM302300 08006KT P6SM SCT050 SCT110
     FM310700 VRB03KT P6SM BKN060
     FM311500 08007KT P6SM BKN050=

USA.gov is the U.S. government's official web portal to all federal, state and local government web resources and services.